Time,TemperatureF,DewpointF,PressureIn,WindDirection,WindDirectionDegrees,WindSpeedMPH,WindSpeedGustMPH,Humidity,HourlyPrecipIn,Conditions,Clouds,dailyrainin,SoftwareType,DateUTC
2013-10-08 00:00:00,79.6,78.4,29.75,NNW,347,0.0,0.0,96,0.00,,---,0.54,VWS V14.01,2013-10-08 04:00:00,
2013-10-08 00:01:00,79.8,78.6,29.75,West,272,3.0,10.0,96,0.00,,---,0.00,VWS V14.01,2013-10-08 04:01:00,
2013-10-08 00:06:00,79.8,78.6,29.75,NW,318,0.0,10.0,96,0.00,,---,0.00,VWS V14.01,2013-10-08 04:06:00,
2013-10-08 00:10:00,79.6,78.4,29.75,NNW,347,0.0,0.0,96,0.00,,---,0.54,VWS V14.01,2013-10-08 04:10:00,
2013-10-08 00:11:00,79.8,78.6,29.75,NW,319,7.0,10.0,96,0.00,,---,0.00,VWS V14.01,2013-10-08 04:11:00,
2013-10-08 00:16:00,79.8,78.6,29.74,NW,305,5.0,10.0,96,0.00,,---,0.00,VWS V14.01,2013-10-08 04:16:00,
2013-10-08 00:20:00,79.6,78.4,29.75,NW,311,6.0,6.0,96,0.00,,---,0.54,VWS V14.01,2013-10-08 04:20:00,
2013-10-08 00:21:00,79.9,78.7,29.74,NW,304,0.0,7.0,96,0.00,,---,0.00,VWS V14.01,2013-10-08 04:21:00,
2013-10-08 00:26:00,79.9,78.7,29.74,NW,309,0.0,8.0,96,0.00,,---,0.00,VWS V14.01,2013-10-08 04:26:00,
2013-10-08 00:30:00,79.6,78.4,29.75,WNW,288,0.0,11.0,96,0.00,,---,0.54,VWS V14.01,2013-10-08 04:30:00,
2013-10-08 00:31:00,79.8,78.6,29.74,West,280,0.0,0.0,96,0.00,,---,0.00,VWS V14.01,2013-10-08 04:31:00,
2013-10-08 00:36:00,79.8,78.6,29.74,NNW,332,8.0,13.0,96,0.00,,---,0.00,VWS V14.01,2013-10-08 04:36:00,
2013-10-08 00:40:00,79.8,78.6,29.75,NW,305,0.0,10.0,96,0.00,,---,0.54,VWS V14.01,2013-10-08 04:40:00,
2013-10-08 00:41:00,79.8,78.6,29.74,NW,316,0.0,5.0,96,0.00,,---,0.00,VWS V14.01,2013-10-08 04:41:00,
2013-10-08 00:46:00,79.8,78.6,29.74,NW,322,6.0,6.0,96,0.00,,---,0.00,VWS V14.01,2013-10-08 04:46:00,
2013-10-08 00:50:00,79.9,78.7,29.75,NNW,335,5.0,10.0,96,0.00,,---,0.54,VWS V14.01,2013-10-08 04:50:00,
2013-10-08 00:51:00,79.8,78.6,29.74,NW,315,0.0,7.0,96,0.00,,---,0.00,VWS V14.01,2013-10-08 04:51:00,
2013-10-08 00:56:00,79.8,78.6,29.74,NW,311,5.0,10.0,96,0.00,,---,0.00,VWS V14.01,2013-10-08 04:56:00,
2013-10-08 01:00:00,79.8,78.6,29.75,NNW,332,10.0,10.0,96,0.00,,---,0.54,VWS V14.01,2013-10-08 05:00:00,
2013-10-08 01:01:00,79.8,78.6,29.73,WNW,285,1.0,6.0,96,0.00,,---,0.00,VWS V14.01,2013-10-08 05:01:00,
2013-10-08 01:06:00,79.6,78.4,29.73,NW,305,0.0,10.0,96,0.00,,---,0.00,VWS V14.01,2013-10-08 05:06:00,
2013-10-08 01:10:00,79.8,78.6,29.75,West,281,0.0,10.0,96,0.00,,---,0.00,VWS V14.01,2013-10-08 05:10:00,
2013-10-08 01:11:00,79.6,78.4,29.73,SW,224,0.0,5.0,96,0.00,,---,0.00,VWS V14.01,2013-10-08 05:11:00,
2013-10-08 01:16:00,79.6,78.4,29.72,WNW,299,7.0,8.0,96,0.00,,---,0.00,VWS V14.01,2013-10-08 05:16:00,
2013-10-08 01:20:00,79.9,78.7,29.74,NW,326,0.0,10.0,96,0.00,,---,0.00,VWS V14.01,2013-10-08 05:20:00,
2013-10-08 01:21:00,79.6,78.4,29.72,NW,306,6.0,7.0,96,0.00,,---,0.00,VWS V14.01,2013-10-08 05:21:00,
2013-10-08 01:26:00,79.8,78.6,29.72,NW,325,7.0,12.0,96,0.00,,---,0.00,VWS V14.01,2013-10-08 05:26:00,
2013-10-08 01:30:00,79.8,78.6,29.74,NW,309,0.0,8.0,96,0.00,,---,0.00,VWS V14.01,2013-10-08 05:30:00,
2013-10-08 01:31:00,79.8,78.6,29.72,North,356,8.0,9.0,96,0.00,,---,0.00,VWS V14.01,2013-10-08 05:31:00,
2013-10-08 01:36:00,79.8,78.6,29.72,WNW,296,7.0,10.0,96,0.00,,---,0.00,VWS V14.01,2013-10-08 05:36:00,
2013-10-08 01:40:00,79.8,78.6,29.74,WNW,282,3.0,13.0,96,0.00,,---,0.00,VWS V14.01,2013-10-08 05:40:00,
2013-10-08 01:41:00,79.8,78.6,29.72,North,357,6.0,8.0,96,0.00,,---,0.00,VWS V14.01,2013-10-08 05:41:00,
2013-10-08 01:46:00,79.6,78.4,29.72,WNW,301,0.0,8.0,96,0.00,,---,0.00,VWS V14.01,2013-10-08 05:46:00,
2013-10-08 01:50:00,79.8,78.6,29.74,NW,305,0.0,6.0,96,0.00,,---,0.00,VWS V14.01,2013-10-08 05:50:00,
2013-10-08 01:51:00,79.6,78.4,29.72,NNW,343,5.0,10.0,96,0.00,,---,0.00,VWS V14.01,2013-10-08 05:51:00,
2013-10-08 01:56:00,79.4,78.2,29.72,NW,320,8.0,10.0,96,0.00,,---,0.00,VWS V14.01,2013-10-08 05:56:00,
2013-10-08 02:00:00,79.8,78.6,29.73,WNW,291,2.0,10.0,96,0.00,,---,0.00,VWS V14.01,2013-10-08 06:00:00,
2013-10-08 02:01:00,79.4,78.2,29.72,NW,305,2.0,13.0,96,0.00,,---,0.00,VWS V14.01,2013-10-08 06:01:00,
2013-10-08 02:06:00,79.4,78.2,29.72,WNW,298,0.0,13.0,96,0.00,,---,0.00,VWS V14.01,2013-10-08 06:06:00,
2013-10-08 02:10:00,79.6,78.4,29.73,NW,315,3.0,10.0,96,0.00,,---,0.00,VWS V14.01,2013-10-08 06:10:00,
2013-10-08 02:11:00,79.4,78.2,29.72,NNW,329,0.0,10.0,96,0.00,,---,0.00,VWS V14.01,2013-10-08 06:11:00,
2013-10-08 02:16:00,79.4,78.2,29.72,NW,312,6.0,11.0,96,0.00,,---,0.00,VWS V14.01,2013-10-08 06:16:00,
2013-10-08 02:20:00,79.6,78.4,29.72,NW,308,1.0,8.0,96,0.00,,---,0.00,VWS V14.01,2013-10-08 06:20:00,
2013-10-08 02:21:00,79.2,78.0,29.72,NW,315,0.0,6.0,96,0.00,,---,0.00,VWS V14.01,2013-10-08 06:21:00,
2013-10-08 02:26:00,79.2,78.0,29.72,NNW,328,0.0,7.0,96,0.00,,---,0.00,VWS V14.01,2013-10-08 06:26:00,
2013-10-08 02:30:00,79.8,78.6,29.72,NW,305,4.0,12.0,96,0.00,,---,0.00,VWS V14.01,2013-10-08 06:30:00,
2013-10-08 02:31:00,79.0,77.8,29.72,WNW,292,0.0,10.0,96,0.00,,---,0.00,VWS V14.01,2013-10-08 06:31:00,
2013-10-08 02:36:00,79.0,77.8,29.72,North,356,6.0,10.0,96,0.00,,---,0.00,VWS V14.01,2013-10-08 06:36:00,
2013-10-08 02:40:00,79.8,78.6,29.72,NNW,344,8.0,10.0,96,0.00,,---,0.00,VWS V14.01,2013-10-08 06:40:00,
2013-10-08 02:41:00,79.0,77.8,29.72,NW,306,0.0,6.0,96,0.00,,---,0.00,VWS V14.01,2013-10-08 06:41:00,
2013-10-08 02:46:00,78.8,77.6,29.72,NW,319,1.0,6.0,96,0.00,,---,0.00,VWS V14.01,2013-10-08 06:46:00,
2013-10-08 02:50:00,79.6,78.4,29.72,North,356,4.0,8.0,96,0.00,,---,0.00,VWS V14.01,2013-10-08 06:50:00,
2013-10-08 02:51:00,78.8,77.6,29.72,NNW,329,7.0,9.0,96,0.00,,---,0.00,VWS V14.01,2013-10-08 06:51:00,
2013-10-08 02:56:00,78.8,77.6,29.72,NW,309,1.0,9.0,96,0.00,,---,0.00,VWS V14.01,2013-10-08 06:56:00,
2013-10-08 03:00:00,79.4,78.2,29.72,NW,315,4.0,12.0,96,0.00,,---,0.00,VWS V14.01,2013-10-08 07:00:00,
2013-10-08 03:01:00,78.6,77.4,29.72,NNW,339,5.0,7.0,96,0.00,,---,0.00,VWS V14.01,2013-10-08 07:01:00,
2013-10-08 03:06:00,78.6,77.4,29.72,NW,309,1.0,7.0,96,0.00,,---,0.00,VWS V14.01,2013-10-08 07:06:00,
2013-10-08 03:10:00,79.4,78.2,29.72,NW,304,3.0,13.0,96,0.00,,---,0.00,VWS V14.01,2013-10-08 07:10:00,
2013-10-08 03:11:00,78.6,77.4,29.72,WNW,296,0.0,6.0,96,0.00,,---,0.00,VWS V14.01,2013-10-08 07:11:00,
2013-10-08 03:16:00,78.6,77.4,29.72,NW,319,2.0,8.0,96,0.00,,---,0.00,VWS V14.01,2013-10-08 07:16:00,
2013-10-08 03:20:00,79.4,78.2,29.72,NW,318,2.0,11.0,96,0.00,,---,0.00,VWS V14.01,2013-10-08 07:20:00,
2013-10-08 03:21:00,78.6,77.4,29.72,NW,311,0.0,6.0,96,0.00,,---,0.00,VWS V14.01,2013-10-08 07:21:00,
2013-10-08 03:26:00,78.6,77.4,29.72,NNW,340,0.0,6.0,96,0.00,,---,0.00,VWS V14.01,2013-10-08 07:26:00,
2013-10-08 03:30:00,79.2,78.0,29.72,NW,309,3.0,7.0,96,0.00,,---,0.00,VWS V14.01,2013-10-08 07:30:00,
2013-10-08 03:40:00,79.0,77.8,29.72,NW,312,0.0,10.0,96,0.00,,---,0.00,VWS V14.01,2013-10-08 07:40:00,
2013-10-08 03:50:00,78.8,77.6,29.72,NNW,342,0.0,7.0,96,0.00,,---,0.00,VWS V14.01,2013-10-08 07:50:00,
2013-10-08 04:00:00,78.8,77.6,29.72,NW,320,0.0,9.0,96,0.00,,---,0.00,VWS V14.01,2013-10-08 08:00:00,
2013-10-08 04:10:00,78.6,77.4,29.72,NW,306,6.0,7.0,96,0.00,,---,0.00,VWS V14.01,2013-10-08 08:10:00,
2013-10-08 04:20:00,78.6,77.4,29.72,NW,319,4.0,8.0,96,0.00,,---,0.00,VWS V14.01,2013-10-08 08:20:00,
2013-10-08 04:30:00,78.5,77.3,29.72,WNW,291,2.0,8.0,96,0.00,,---,0.00,VWS V14.01,2013-10-08 08:30:00,
2013-10-08 04:40:00,78.3,77.1,29.72,NW,326,0.0,3.0,96,0.00,,---,0.00,VWS V14.01,2013-10-08 08:40:00,
2013-10-08 04:50:00,78.3,77.1,29.72,NW,316,0.0,7.0,96,0.00,,---,0.00,VWS V14.01,2013-10-08 08:50:00,
2013-10-08 05:00:00,78.3,77.1,29.72,WNW,301,3.0,7.0,96,0.00,,---,0.00,VWS V14.01,2013-10-08 09:00:00,
2013-10-08 05:10:00,78.3,77.1,29.72,WNW,294,4.0,10.0,96,0.00,,---,0.00,VWS V14.01,2013-10-08 09:10:00,
2013-10-08 05:20:00,78.3,77.1,29.72,NW,315,0.0,6.0,96,0.00,,---,0.00,VWS V14.01,2013-10-08 09:20:00,
2013-10-08 05:30:00,78.1,76.9,29.72,NNW,333,2.0,5.0,96,0.00,,---,0.00,VWS V14.01,2013-10-08 09:30:00,
2013-10-08 05:40:00,78.1,76.9,29.72,NW,305,0.0,6.0,96,0.00,,---,0.00,VWS V14.01,2013-10-08 09:40:00,
2013-10-08 05:50:00,78.1,76.9,29.72,NW,319,0.0,6.0,96,0.00,,---,0.00,VWS V14.01,2013-10-08 09:50:00,
2013-10-08 06:00:00,77.9,76.7,29.72,NW,318,0.0,4.0,96,0.00,,---,0.00,VWS V14.01,2013-10-08 10:00:00,
2013-10-08 06:10:00,77.9,76.7,29.72,NW,313,1.0,5.0,96,0.00,,---,0.00,VWS V14.01,2013-10-08 10:10:00,
2013-10-08 06:20:00,77.7,76.5,29.72,WNW,302,0.0,3.0,96,0.00,,---,0.00,VWS V14.01,2013-10-08 10:20:00,
2013-10-08 06:30:00,77.7,76.5,29.73,WNW,302,0.0,2.0,96,0.00,,---,0.00,VWS V14.01,2013-10-08 10:30:00,
2013-10-08 06:40:00,77.7,76.5,29.73,WNW,302,0.0,1.0,96,0.00,,---,0.00,VWS V14.01,2013-10-08 10:40:00,
2013-10-08 06:50:00,77.7,76.5,29.74,WNW,302,0.0,0.0,96,0.00,,---,0.00,VWS V14.01,2013-10-08 10:50:00,
2013-10-08 07:00:00,77.7,76.5,29.74,WNW,302,0.0,0.0,96,0.00,,---,0.00,VWS V14.01,2013-10-08 11:00:00,
2013-10-08 07:10:00,77.7,76.5,29.74,WNW,302,0.0,0.0,96,0.00,,---,0.00,VWS V14.01,2013-10-08 11:10:00,
2013-10-08 07:20:00,77.7,76.5,29.74,WNW,302,0.0,1.0,96,0.00,,---,0.00,VWS V14.01,2013-10-08 11:20:00,
2013-10-08 07:30:00,77.6,76.4,29.74,WNW,302,0.0,0.0,96,0.00,,---,0.00,VWS V14.01,2013-10-08 11:30:00,
2013-10-08 07:40:00,77.4,76.2,29.74,WNW,302,0.0,0.0,96,0.00,,---,0.00,VWS V14.01,2013-10-08 11:40:00,
2013-10-08 07:45:00,76.5,75.3,29.76,WNW,302,0.0,0.0,96,0.03,,---,0.03,VWS V14.01,2013-10-08 11:45:00,
2013-10-08 07:50:00,76.3,75.1,29.76,NW,304,0.0,0.0,96,0.03,,---,0.03,VWS V14.01,2013-10-08 11:50:00,
2013-10-08 07:55:00,76.3,75.1,29.76,WNW,302,0.0,0.0,96,0.03,,---,0.03,VWS V14.01,2013-10-08 11:55:00,
2013-10-08 08:00:00,76.5,75.3,29.77,NW,304,0.0,0.0,96,0.03,,---,0.03,VWS V14.01,2013-10-08 12:00:00,
2013-10-08 08:05:00,76.5,75.3,29.77,WNW,302,0.0,0.0,96,0.03,,---,0.03,VWS V14.01,2013-10-08 12:05:00,
2013-10-08 08:10:00,76.7,75.5,29.77,WNW,302,0.0,0.0,96,0.02,,---,0.03,VWS V14.01,2013-10-08 12:10:00,
2013-10-08 08:15:00,76.7,75.5,29.77,NNE,25,0.0,0.0,96,0.02,,---,0.03,VWS V14.01,2013-10-08 12:15:00,
2013-10-08 08:20:00,77.0,75.8,29.77,NNE,14,0.0,0.0,96,0.00,,---,0.03,VWS V14.01,2013-10-08 12:20:00,
2013-10-08 08:25:00,77.2,76.0,29.77,NNW,330,0.0,0.0,96,0.00,,---,0.03,VWS V14.01,2013-10-08 12:25:00,
2013-10-08 08:30:00,77.6,76.4,29.78,WNW,301,0.0,0.0,96,0.00,,---,0.03,VWS V14.01,2013-10-08 12:30:00,
2013-10-08 08:35:00,77.7,76.5,29.78,NW,315,0.0,1.0,96,0.00,,---,0.03,VWS V14.01,2013-10-08 12:35:00,
2013-10-08 08:40:00,78.3,77.1,29.78,NW,313,0.0,0.0,96,0.00,,---,0.03,VWS V14.01,2013-10-08 12:40:00,
2013-10-08 08:45:00,78.5,77.3,29.78,NW,309,0.0,0.0,96,0.00,,---,0.03,VWS V14.01,2013-10-08 12:45:00,
2013-10-08 08:50:00,78.6,77.4,29.78,NNW,329,0.0,0.0,96,0.00,,---,0.03,VWS V14.01,2013-10-08 12:50:00,
2013-10-08 08:55:00,78.8,77.6,29.78,NNW,328,0.0,0.0,96,0.00,,---,0.03,VWS V14.01,2013-10-08 12:55:00,
2013-10-08 09:00:00,76.5,75.3,29.77,NW,304,0.0,0.0,96,0.03,,---,0.03,VWS V14.01,2013-10-08 13:00:00,
2013-10-08 09:01:00,79.2,78.0,29.79,WNW,301,0.0,0.0,96,0.00,,---,0.03,VWS V14.01,2013-10-08 13:01:00,
2013-10-08 09:05:00,79.4,78.2,29.79,NW,306,0.0,1.0,96,0.00,,---,0.03,VWS V14.01,2013-10-08 13:05:00,
2013-10-08 09:10:00,79.8,78.6,29.79,NW,313,3.0,8.0,96,0.00,,---,0.03,VWS V14.01,2013-10-08 13:10:00,
2013-10-08 09:15:00,80.1,78.9,29.79,SW,219,0.0,8.0,96,0.00,,---,0.03,VWS V14.01,2013-10-08 13:15:00,
2013-10-08 09:20:00,80.5,79.3,29.79,SW,233,0.0,3.0,96,0.00,,---,0.03,VWS V14.01,2013-10-08 13:20:00,
2013-10-08 09:25:00,80.9,79.7,29.79,WNW,298,0.0,3.0,96,0.00,,---,0.03,VWS V14.01,2013-10-08 13:25:00,
2013-10-08 09:30:00,81.2,80.0,29.80,NNW,332,5.0,6.0,96,0.00,,---,0.03,VWS V14.01,2013-10-08 13:30:00,
2013-10-08 09:35:00,81.2,80.0,29.80,NW,312,2.0,11.0,96,0.00,,---,0.03,VWS V14.01,2013-10-08 13:35:00,
2013-10-08 09:40:00,81.2,80.0,29.80,NW,312,5.0,10.0,96,0.00,,---,0.03,VWS V14.01,2013-10-08 13:40:00,
2013-10-08 09:46:00,81.2,80.0,29.80,NW,305,7.0,10.0,96,0.00,,---,0.03,VWS V14.01,2013-10-08 13:46:00,
2013-10-08 09:50:00,78.5,77.3,29.78,NW,323,0.0,4.0,96,0.00,,---,0.03,VWS V14.01,2013-10-08 13:50:00,
2013-10-08 09:51:00,81.4,80.2,29.80,WNW,292,3.0,7.0,96,0.00,,---,0.03,VWS V14.01,2013-10-08 13:51:00,
2013-10-08 09:56:00,81.2,80.0,29.80,NW,305,2.0,8.0,96,0.00,,---,0.03,VWS V14.01,2013-10-08 13:56:00,
2013-10-08 10:00:00,79.0,77.8,29.79,NW,313,0.0,3.0,96,0.00,,---,0.03,VWS V14.01,2013-10-08 14:00:00,
2013-10-08 10:01:00,81.4,80.2,29.80,NNW,335,5.0,7.0,96,0.00,,---,0.03,VWS V14.01,2013-10-08 14:01:00,
2013-10-08 10:06:00,81.6,80.3,29.80,West,277,3.0,8.0,96,0.00,,---,0.03,VWS V14.01,2013-10-08 14:06:00,
2013-10-08 10:10:00,79.8,78.6,29.79,NW,322,6.0,7.0,96,0.00,,---,0.03,VWS V14.01,2013-10-08 14:10:00,
2013-10-08 10:11:00,82.0,80.8,29.80,NW,318,2.0,4.0,96,0.00,,---,0.03,VWS V14.01,2013-10-08 14:11:00,
2013-10-08 10:16:00,82.2,80.9,29.80,West,272,4.0,7.0,96,0.00,,---,0.03,VWS V14.01,2013-10-08 14:16:00,
2013-10-08 10:20:00,80.3,79.1,29.79,NW,313,0.0,8.0,96,0.00,,---,0.03,VWS V14.01,2013-10-08 14:20:00,
2013-10-08 10:21:00,82.6,81.3,29.80,NNW,330,6.0,8.0,96,0.00,,---,0.03,VWS V14.01,2013-10-08 14:21:00,
2013-10-08 10:26:00,82.4,81.2,29.80,NNW,336,5.0,11.0,96,0.00,,---,0.03,VWS V14.01,2013-10-08 14:26:00,
2013-10-08 10:30:00,81.1,79.9,29.80,West,277,0.0,6.0,96,0.00,,---,0.03,VWS V14.01,2013-10-08 14:30:00,
2013-10-08 10:31:00,82.0,80.8,29.81,NW,304,6.0,10.0,96,0.00,,---,0.03,VWS V14.01,2013-10-08 14:31:00,
2013-10-08 10:36:00,81.6,80.3,29.81,NW,305,2.0,11.0,96,0.00,,---,0.03,VWS V14.01,2013-10-08 14:36:00,
2013-10-08 10:40:00,81.2,80.0,29.80,NNW,329,7.0,11.0,96,0.00,,---,0.03,VWS V14.01,2013-10-08 14:40:00,
2013-10-08 10:41:00,81.4,80.2,29.81,WSW,253,5.0,8.0,96,0.00,,---,0.03,VWS V14.01,2013-10-08 14:41:00,
2013-10-08 10:46:00,81.2,80.0,29.81,NW,316,3.0,8.0,96,0.00,,---,0.03,VWS V14.01,2013-10-08 14:46:00,
2013-10-08 10:50:00,81.2,80.0,29.80,West,264,1.0,10.0,96,0.00,,---,0.03,VWS V14.01,2013-10-08 14:50:00,
2013-10-08 10:51:00,81.2,80.0,29.81,WSW,256,5.0,7.0,96,0.00,,---,0.03,VWS V14.01,2013-10-08 14:51:00,
2013-10-08 10:56:00,81.2,80.0,29.81,NW,306,4.0,8.0,96,0.00,,---,0.03,VWS V14.01,2013-10-08 14:56:00,
2013-10-08 11:00:00,81.4,80.2,29.81,WNW,288,3.0,5.0,96,0.00,,---,0.03,VWS V14.01,2013-10-08 15:00:00,
2013-10-08 11:05:00,81.6,80.3,29.81,NW,304,9.0,10.0,96,0.00,,---,0.03,VWS V14.01,2013-10-08 15:05:00,
2013-10-08 11:10:00,81.6,80.3,29.81,WNW,302,3.0,7.0,96,0.00,,---,0.03,VWS V14.01,2013-10-08 15:10:00,
2013-10-08 11:15:00,82.0,80.8,29.81,WNW,291,8.0,8.0,96,0.00,,---,0.03,VWS V14.01,2013-10-08 15:15:00,
2013-10-08 11:20:00,82.2,80.9,29.81,NW,315,1.0,5.0,96,0.00,,---,0.03,VWS V14.01,2013-10-08 15:20:00,
2013-10-08 11:25:00,82.6,80.7,29.81,West,274,3.0,11.0,94,0.00,,---,0.03,VWS V14.01,2013-10-08 15:25:00,
2013-10-08 11:30:00,83.0,81.1,29.81,WNW,299,0.0,2.0,94,0.00,,---,0.03,VWS V14.01,2013-10-08 15:30:00,
2013-10-08 11:35:00,83.2,81.0,29.81,WNW,287,7.0,12.0,93,0.00,,---,0.03,VWS V14.01,2013-10-08 15:35:00,
2013-10-08 11:40:00,83.0,80.8,29.81,WNW,299,1.0,6.0,93,0.00,,---,0.03,VWS V14.01,2013-10-08 15:40:00,
2013-10-08 11:45:00,82.6,80.0,29.81,NW,308,5.0,11.0,92,0.00,,---,0.03,VWS V14.01,2013-10-08 15:45:00,
2013-10-08 11:50:00,82.6,80.0,29.81,NW,322,2.0,6.0,92,0.00,,---,0.03,VWS V14.01,2013-10-08 15:50:00,
2013-10-08 11:55:00,82.8,80.6,29.81,WNW,296,3.0,6.0,93,0.00,,---,0.03,VWS V14.01,2013-10-08 15:55:00,
2013-10-08 12:00:00,83.0,80.8,29.81,NNW,342,6.0,8.0,93,0.00,,---,0.03,VWS V14.01,2013-10-08 16:00:00,
2013-10-08 12:05:00,82.6,80.4,29.81,NW,312,0.0,10.0,93,0.00,,---,0.03,VWS V14.01,2013-10-08 16:05:00,
2013-10-08 12:10:00,82.6,80.4,29.81,NW,309,0.0,6.0,93,0.00,,---,0.03,VWS V14.01,2013-10-08 16:10:00,
2013-10-08 12:15:00,83.0,80.4,29.81,NW,322,2.0,7.0,92,0.00,,---,0.03,VWS V14.01,2013-10-08 16:15:00,
2013-10-08 12:20:00,84.0,81.4,29.81,WNW,301,0.0,0.0,92,0.00,,---,0.03,VWS V14.01,2013-10-08 16:20:00,
2013-10-08 12:25:00,84.3,81.4,29.81,NW,308,7.0,10.0,91,0.00,,---,0.03,VWS V14.01,2013-10-08 16:25:00,
2013-10-08 12:30:00,84.1,81.5,29.81,NW,312,3.0,10.0,92,0.00,,---,0.03,VWS V14.01,2013-10-08 16:30:00,
2013-10-08 12:35:00,84.0,80.4,29.81,NW,306,0.0,10.0,89,0.00,,---,0.03,VWS V14.01,2013-10-08 16:35:00,
2013-10-08 12:40:00,84.0,80.8,29.81,NW,304,3.0,8.0,90,0.00,,---,0.03,VWS V14.01,2013-10-08 16:40:00,
2013-10-08 12:45:00,84.5,81.2,29.81,WNW,296,2.0,9.0,90,0.00,,---,0.03,VWS V14.01,2013-10-08 16:45:00,
2013-10-08 12:50:00,84.9,81.6,29.81,WNW,285,1.0,2.0,90,0.00,,---,0.03,VWS V14.01,2013-10-08 16:50:00,
2013-10-08 12:55:00,85.1,81.2,29.81,NW,305,5.0,11.0,88,0.00,,---,0.03,VWS V14.01,2013-10-08 16:55:00,
2013-10-08 13:00:00,83.2,81.0,29.81,WNW,289,0.0,7.0,93,0.00,,---,0.03,VWS V14.01,2013-10-08 17:00:00,
2013-10-08 13:01:00,85.1,81.2,29.81,SW,227,5.0,10.0,88,0.00,,---,0.03,VWS V14.01,2013-10-08 17:01:00,
2013-10-08 13:06:00,85.1,80.8,29.81,West,281,0.0,10.0,87,0.00,,---,0.03,VWS V14.01,2013-10-08 17:06:00,
2013-10-08 13:10:00,82.4,80.2,29.81,WNW,282,6.0,10.0,93,0.00,,---,0.03,VWS V14.01,2013-10-08 17:10:00,
2013-10-08 13:11:00,85.1,79.7,29.81,WSW,247,1.0,3.0,84,0.00,,---,0.03,VWS V14.01,2013-10-08 17:11:00,
2013-10-08 13:16:00,84.9,79.9,29.80,WNW,292,1.0,8.0,85,0.00,,---,0.03,VWS V14.01,2013-10-08 17:16:00,
2013-10-08 13:20:00,83.4,81.2,29.81,West,281,0.0,7.0,93,0.00,,---,0.03,VWS V14.01,2013-10-08 17:20:00,
2013-10-08 13:21:00,85.1,80.8,29.80,WSW,244,6.0,6.0,87,0.00,,---,0.03,VWS V14.01,2013-10-08 17:21:00,
2013-10-08 13:26:00,84.9,80.6,29.80,WNW,295,2.0,13.0,87,0.00,,---,0.03,VWS V14.01,2013-10-08 17:26:00,
2013-10-08 13:30:00,84.1,81.2,29.81,NW,306,10.0,12.0,91,0.00,,---,0.03,VWS V14.01,2013-10-08 17:30:00,
2013-10-08 13:31:00,84.9,80.2,29.80,NW,325,4.0,10.0,86,0.00,,---,0.03,VWS V14.01,2013-10-08 17:31:00,
2013-10-08 13:36:00,85.1,80.4,29.80,NW,313,1.0,10.0,86,0.00,,---,0.03,VWS V14.01,2013-10-08 17:36:00,
2013-10-08 13:40:00,83.8,80.6,29.81,NW,312,4.0,12.0,90,0.00,,---,0.03,VWS V14.01,2013-10-08 17:40:00,
2013-10-08 13:41:00,84.9,81.3,29.80,NW,311,6.0,10.0,89,0.00,,---,0.03,VWS V14.01,2013-10-08 17:41:00,
2013-10-08 13:46:00,84.5,81.6,29.79,NW,320,0.0,14.0,91,0.00,,---,0.03,VWS V14.01,2013-10-08 17:46:00,
2013-10-08 13:50:00,84.7,81.1,29.79,NW,313,6.0,12.0,89,0.00,,---,0.03,VWS V14.01,2013-10-08 17:50:00,
2013-10-08 13:55:00,84.1,80.5,29.79,NW,315,2.0,12.0,89,0.00,,---,0.03,VWS V14.01,2013-10-08 17:55:00,
2013-10-08 14:00:00,84.1,80.2,29.78,NW,313,8.0,9.0,88,0.00,,---,0.03,VWS V14.01,2013-10-08 18:00:00,
2013-10-08 14:05:00,84.0,80.1,29.78,NW,326,3.0,12.0,88,0.00,,---,0.03,VWS V14.01,2013-10-08 18:05:00,
2013-10-08 14:10:00,84.5,80.2,29.78,NW,304,1.0,8.0,87,0.00,,---,0.03,VWS V14.01,2013-10-08 18:10:00,
2013-10-08 14:15:00,84.7,81.1,29.78,WNW,302,6.0,11.0,89,0.00,,---,0.03,VWS V14.01,2013-10-08 18:15:00,
2013-10-08 14:20:00,84.1,80.8,29.78,WNW,292,1.0,11.0,90,0.00,,---,0.03,VWS V14.01,2013-10-08 18:20:00,
2013-10-08 14:25:00,84.0,79.7,29.78,NW,320,5.0,16.0,87,0.00,,---,0.03,VWS V14.01,2013-10-08 18:25:00,
2013-10-08 14:30:00,84.0,80.1,29.78,WNW,292,0.0,8.0,88,0.00,,---,0.03,VWS V14.01,2013-10-08 18:30:00,
2013-10-08 14:35:00,84.1,80.2,29.78,WNW,298,1.0,10.0,88,0.00,,---,0.03,VWS V14.01,2013-10-08 18:35:00,
2013-10-08 14:40:00,84.5,80.2,29.78,NNW,329,4.0,4.0,87,0.00,,---,0.03,VWS V14.01,2013-10-08 18:40:00,
2013-10-08 14:45:00,84.9,80.9,29.77,NW,304,1.0,9.0,88,0.00,,---,0.03,VWS V14.01,2013-10-08 18:45:00,
2013-10-08 14:50:00,84.3,80.7,29.77,NW,309,5.0,10.0,89,0.00,,---,0.03,VWS V14.01,2013-10-08 18:50:00,
2013-10-08 14:55:00,84.5,81.6,29.77,West,277,0.0,10.0,91,0.00,,---,0.03,VWS V14.01,2013-10-08 18:55:00,
2013-10-08 15:00:00,84.7,80.8,29.77,NW,316,6.0,10.0,88,0.00,,---,0.03,VWS V14.01,2013-10-08 19:00:00,
2013-10-08 15:05:00,84.1,80.8,29.77,West,280,7.0,12.0,90,0.00,,---,0.03,VWS V14.01,2013-10-08 19:05:00,
2013-10-08 15:10:00,84.0,80.4,29.77,WNW,301,6.0,14.0,89,0.00,,---,0.03,VWS V14.01,2013-10-08 19:10:00,
2013-10-08 15:15:00,84.1,80.5,29.77,WNW,289,3.0,14.0,89,0.00,,---,0.03,VWS V14.01,2013-10-08 19:15:00,
2013-10-08 15:20:00,84.7,81.8,29.77,WNW,288,6.0,17.0,91,0.00,,---,0.03,VWS V14.01,2013-10-08 19:20:00,
2013-10-08 15:25:00,84.9,82.0,29.77,WNW,302,6.0,17.0,91,0.00,,---,0.03,VWS V14.01,2013-10-08 19:25:00,
2013-10-08 15:30:00,84.9,82.3,29.77,NW,325,12.0,12.0,92,0.00,,---,0.03,VWS V14.01,2013-10-08 19:30:00,
2013-10-08 15:35:00,84.7,81.4,29.77,WNW,288,1.0,12.0,90,0.00,,---,0.03,VWS V14.01,2013-10-08 19:35:00,
2013-10-08 15:40:00,84.9,82.0,29.77,West,280,2.0,5.0,91,0.00,,---,0.03,VWS V14.01,2013-10-08 19:40:00,
2013-10-08 15:45:00,84.9,81.3,29.77,WNW,299,5.0,11.0,89,0.00,,---,0.03,VWS V14.01,2013-10-08 19:45:00,
2013-10-08 15:50:00,84.5,81.6,29.77,NW,306,6.0,11.0,91,0.00,,---,0.03,VWS V14.01,2013-10-08 19:50:00,
2013-10-08 15:55:00,84.9,81.6,29.77,WNW,292,5.0,12.0,90,0.00,,---,0.03,VWS V14.01,2013-10-08 19:55:00,
2013-10-08 16:00:00,84.7,81.8,29.77,NW,318,7.0,8.0,91,0.00,,---,0.03,VWS V14.01,2013-10-08 20:00:00,
2013-10-08 16:05:00,84.7,81.4,29.77,WNW,299,0.0,13.0,90,0.00,,---,0.03,VWS V14.01,2013-10-08 20:05:00,
2013-10-08 16:10:00,84.7,82.1,29.77,NW,306,8.0,11.0,92,0.00,,---,0.03,VWS V14.01,2013-10-08 20:10:00,
2013-10-08 16:15:00,84.9,82.3,29.77,NW,306,5.0,11.0,92,0.00,,---,0.03,VWS V14.01,2013-10-08 20:15:00,
2013-10-08 16:20:00,84.7,82.8,29.77,NW,315,10.0,10.0,94,0.00,,---,0.03,VWS V14.01,2013-10-08 20:20:00,
2013-10-08 16:25:00,84.7,82.5,29.77,NW,304,5.0,12.0,93,0.00,,---,0.03,VWS V14.01,2013-10-08 20:25:00,
2013-10-08 16:30:00,84.5,81.9,29.77,WNW,302,7.0,10.0,92,0.00,,---,0.03,VWS V14.01,2013-10-08 20:30:00,
2013-10-08 16:35:00,84.1,81.9,29.77,NW,325,1.0,11.0,93,0.00,,---,0.03,VWS V14.01,2013-10-08 20:35:00,
2013-10-08 16:40:00,84.1,81.9,29.77,WNW,301,7.0,10.0,93,0.00,,---,0.03,VWS V14.01,2013-10-08 20:40:00,
2013-10-08 16:45:00,84.5,81.9,29.78,WNW,301,7.0,10.0,92,0.00,,---,0.03,VWS V14.01,2013-10-08 20:45:00,
2013-10-08 16:50:00,83.6,82.0,29.78,NW,325,0.0,5.0,95,0.00,,---,0.03,VWS V14.01,2013-10-08 20:50:00,
2013-10-08 16:55:00,83.4,81.5,29.78,NNW,330,1.0,5.0,94,0.00,,---,0.03,VWS V14.01,2013-10-08 20:55:00,
2013-10-08 17:00:00,83.6,81.0,29.78,WNW,298,2.0,10.0,92,0.00,,---,0.03,VWS V14.01,2013-10-08 21:00:00,
2013-10-08 17:05:00,84.0,81.1,29.78,NW,326,3.0,10.0,91,0.00,,---,0.03,VWS V14.01,2013-10-08 21:05:00,
2013-10-08 17:10:00,84.1,80.8,29.78,NW,306,0.0,3.0,90,0.00,,---,0.03,VWS V14.01,2013-10-08 21:10:00,
2013-10-08 17:15:00,83.8,81.2,29.78,NNW,336,3.0,7.0,92,0.00,,---,0.03,VWS V14.01,2013-10-08 21:15:00,
2013-10-08 17:20:00,83.6,81.4,29.78,WNW,294,1.0,7.0,93,0.00,,---,0.03,VWS V14.01,2013-10-08 21:20:00,
2013-10-08 17:25:00,83.2,81.9,29.78,NW,306,1.0,7.0,96,0.00,,---,0.03,VWS V14.01,2013-10-08 21:25:00,
2013-10-08 17:30:00,83.4,82.1,29.78,NW,312,0.0,6.0,96,0.00,,---,0.03,VWS V14.01,2013-10-08 21:30:00,
2013-10-08 17:35:00,84.0,82.7,29.78,NW,316,3.0,6.0,96,0.00,,---,0.03,VWS V14.01,2013-10-08 21:35:00,
2013-10-08 17:40:00,84.0,82.4,29.78,NNW,347,2.0,6.0,95,0.00,,---,0.03,VWS V14.01,2013-10-08 21:40:00,
2013-10-08 17:45:00,83.6,82.3,29.78,NW,308,0.0,8.0,96,0.00,,---,0.03,VWS V14.01,2013-10-08 21:45:00,
2013-10-08 17:50:00,83.4,82.1,29.78,NW,315,0.0,3.0,96,0.00,,---,0.03,VWS V14.01,2013-10-08 21:50:00,
2013-10-08 17:55:00,83.2,81.9,29.78,NNW,329,0.0,5.0,96,0.00,,---,0.03,VWS V14.01,2013-10-08 21:55:00,
2013-10-08 18:00:00,83.4,82.1,29.78,NW,308,0.0,6.0,96,0.00,,---,0.03,VWS V14.01,2013-10-08 22:00:00,
2013-10-08 18:05:00,83.0,81.8,29.78,NW,311,0.0,6.0,96,0.00,,---,0.03,VWS V14.01,2013-10-08 22:05:00,
2013-10-08 18:10:00,83.4,82.1,29.78,NW,311,0.0,0.0,96,0.00,,---,0.03,VWS V14.01,2013-10-08 22:10:00,
2013-10-08 18:15:00,84.0,82.7,29.78,NW,311,0.0,0.0,96,0.00,,---,0.03,VWS V14.01,2013-10-08 22:15:00,
2013-10-08 18:20:00,84.0,82.7,29.78,NW,312,0.0,0.0,96,0.00,,---,0.03,VWS V14.01,2013-10-08 22:20:00,
2013-10-08 18:25:00,84.0,82.7,29.78,NW,312,0.0,0.0,96,0.00,,---,0.03,VWS V14.01,2013-10-08 22:25:00,
2013-10-08 18:30:00,84.0,82.7,29.78,NW,312,0.0,0.0,96,0.00,,---,0.03,VWS V14.01,2013-10-08 22:30:00,
2013-10-08 18:35:00,83.8,82.5,29.78,NW,312,0.0,0.0,96,0.00,,---,0.03,VWS V14.01,2013-10-08 22:35:00,
2013-10-08 18:40:00,83.2,81.6,29.78,NW,312,0.0,0.0,95,0.00,,---,0.03,VWS V14.01,2013-10-08 22:40:00,
2013-10-08 18:45:00,83.0,81.4,29.78,NW,312,0.0,0.0,95,0.00,,---,0.03,VWS V14.01,2013-10-08 22:45:00,
2013-10-08 18:50:00,82.8,81.2,29.78,North,357,0.0,0.0,95,0.00,,---,0.03,VWS V14.01,2013-10-08 22:50:00,
2013-10-08 18:55:00,82.4,81.2,29.78,NW,322,0.0,0.0,96,0.00,,---,0.03,VWS V14.01,2013-10-08 22:55:00,
2013-10-08 19:00:00,81.8,80.6,29.79,NW,319,0.0,0.0,96,0.00,,---,0.03,VWS V14.01,2013-10-08 23:00:00,
2013-10-08 19:05:00,81.4,80.2,29.79,NW,315,0.0,0.0,96,0.00,,---,0.03,VWS V14.01,2013-10-08 23:05:00,
2013-10-08 19:10:00,81.1,79.9,29.79,NNW,330,0.0,0.0,96,0.00,,---,0.03,VWS V14.01,2013-10-08 23:10:00,
2013-10-08 19:15:00,80.7,79.5,29.79,NW,305,0.0,0.0,96,0.00,,---,0.03,VWS V14.01,2013-10-08 23:15:00,
2013-10-08 19:20:00,80.1,78.9,29.79,NW,304,0.0,0.0,96,0.00,,---,0.03,VWS V14.01,2013-10-08 23:20:00,
2013-10-08 19:25:00,79.9,78.7,29.79,NW,308,0.0,0.0,96,0.00,,---,0.03,VWS V14.01,2013-10-08 23:25:00,
2013-10-08 19:30:00,79.8,78.6,29.80,WNW,296,0.0,0.0,96,0.00,,---,0.03,VWS V14.01,2013-10-08 23:30:00,
2013-10-08 19:35:00,79.6,78.4,29.80,WNW,294,0.0,0.0,96,0.00,,---,0.03,VWS V14.01,2013-10-08 23:35:00,
2013-10-08 19:40:00,79.4,78.2,29.80,WNW,294,0.0,0.0,96,0.00,,---,0.03,VWS V14.01,2013-10-08 23:40:00,
2013-10-08 19:45:00,79.2,78.0,29.80,WNW,292,0.0,0.0,96,0.00,,---,0.03,VWS V14.01,2013-10-08 23:45:00,
2013-10-08 19:50:00,78.8,77.6,29.80,WNW,291,0.0,0.0,96,0.00,,---,0.03,VWS V14.01,2013-10-08 23:50:00,
2013-10-08 19:55:00,78.6,77.4,29.80,WNW,292,0.0,0.0,96,0.00,,---,0.03,VWS V14.01,2013-10-08 23:55:00,
2013-10-08 20:00:00,78.5,77.3,29.81,WNW,292,0.0,0.0,96,0.00,,---,0.03,VWS V14.01,2013-10-09 00:00:00,
2013-10-08 20:05:00,78.3,77.1,29.81,WNW,294,0.0,0.0,96,0.00,,---,0.03,VWS V14.01,2013-10-09 00:05:00,
2013-10-08 20:10:00,78.1,76.9,29.81,WNW,291,0.0,0.0,96,0.00,,---,0.03,VWS V14.01,2013-10-09 00:10:00,
2013-10-08 20:15:00,78.1,76.9,29.81,WNW,292,0.0,0.0,96,0.00,,---,0.03,VWS V14.01,2013-10-09 00:15:00,
2013-10-08 20:20:00,77.9,76.7,29.81,NW,305,0.0,0.0,96,0.00,,---,0.03,VWS V14.01,2013-10-09 00:20:00,
2013-10-08 20:25:00,77.9,76.7,29.81,NW,306,0.0,0.0,96,0.00,,---,0.03,VWS V14.01,2013-10-09 00:25:00,
2013-10-08 20:30:00,77.9,76.7,29.81,NW,306,0.0,0.0,96,0.00,,---,0.03,VWS V14.01,2013-10-09 00:30:00,
2013-10-08 20:35:00,77.9,76.7,29.81,NW,306,0.0,0.0,96,0.00,,---,0.03,VWS V14.01,2013-10-09 00:35:00,
2013-10-08 20:40:00,77.9,76.7,29.81,NW,312,0.0,0.0,96,0.00,,---,0.03,VWS V14.01,2013-10-09 00:40:00,
2013-10-08 20:45:00,77.9,76.7,29.82,NW,306,0.0,0.0,96,0.00,,---,0.03,VWS V14.01,2013-10-09 00:45:00,
2013-10-08 20:50:00,77.7,76.5,29.82,NW,306,0.0,0.0,96,0.00,,---,0.03,VWS V14.01,2013-10-09 00:50:00,
2013-10-08 20:55:00,77.7,76.5,29.82,NW,309,0.0,0.0,96,0.00,,---,0.03,VWS V14.01,2013-10-09 00:55:00,
2013-10-08 21:00:00,77.7,76.5,29.82,NW,306,0.0,0.0,96,0.00,,---,0.03,VWS V14.01,2013-10-09 01:00:00,
2013-10-08 21:05:00,77.7,76.5,29.82,NW,306,0.0,0.0,96,0.00,,---,0.03,VWS V14.01,2013-10-09 01:05:00,
2013-10-08 21:10:00,77.7,76.5,29.82,NW,306,0.0,0.0,96,0.00,,---,0.03,VWS V14.01,2013-10-09 01:10:00,
2013-10-08 21:15:00,77.7,76.5,29.83,NW,306,0.0,0.0,96,0.00,,---,0.03,VWS V14.01,2013-10-09 01:15:00,
2013-10-08 21:20:00,77.7,76.5,29.83,NW,306,0.0,0.0,96,0.00,,---,0.03,VWS V14.01,2013-10-09 01:20:00,
2013-10-08 21:25:00,77.6,76.4,29.83,NW,306,0.0,0.0,96,0.00,,---,0.03,VWS V14.01,2013-10-09 01:25:00,
2013-10-08 21:30:00,77.6,76.4,29.83,NW,306,0.0,0.0,96,0.00,,---,0.03,VWS V14.01,2013-10-09 01:30:00,
2013-10-08 21:35:00,77.6,76.4,29.83,NW,306,0.0,0.0,96,0.00,,---,0.03,VWS V14.01,2013-10-09 01:35:00,
2013-10-08 21:40:00,77.6,76.4,29.83,NW,306,0.0,0.0,96,0.00,,---,0.03,VWS V14.01,2013-10-09 01:40:00,
2013-10-08 21:45:00,77.6,76.4,29.84,NW,306,0.0,0.0,96,0.00,,---,0.03,VWS V14.01,2013-10-09 01:45:00,
2013-10-08 21:50:00,77.6,76.4,29.84,NW,306,0.0,0.0,96,0.00,,---,0.03,VWS V14.01,2013-10-09 01:50:00,
2013-10-08 21:55:00,77.6,76.4,29.84,NW,306,0.0,0.0,96,0.00,,---,0.03,VWS V14.01,2013-10-09 01:55:00,
2013-10-08 22:00:00,77.6,76.4,29.84,NW,306,0.0,0.0,96,0.00,,---,0.03,VWS V14.01,2013-10-09 02:00:00,
2013-10-08 22:05:00,77.6,76.4,29.84,NW,306,0.0,0.0,96,0.00,,---,0.03,VWS V14.01,2013-10-09 02:05:00,
2013-10-08 22:10:00,77.6,76.4,29.84,NW,306,0.0,0.0,96,0.00,,---,0.03,VWS V14.01,2013-10-09 02:10:00,
2013-10-08 22:15:00,77.6,76.4,29.84,NW,306,0.0,0.0,96,0.00,,---,0.03,VWS V14.01,2013-10-09 02:15:00,
2013-10-08 22:20:00,77.6,76.4,29.84,NW,306,0.0,0.0,96,0.00,,---,0.03,VWS V14.01,2013-10-09 02:20:00,
2013-10-08 22:25:00,77.6,76.4,29.84,NW,306,0.0,0.0,96,0.00,,---,0.03,VWS V14.01,2013-10-09 02:25:00,
2013-10-08 22:30:00,77.6,76.4,29.85,NW,306,0.0,0.0,96,0.00,,---,0.03,VWS V14.01,2013-10-09 02:30:00,
2013-10-08 22:35:00,77.6,76.4,29.85,NW,306,0.0,0.0,96,0.00,,---,0.03,VWS V14.01,2013-10-09 02:35:00,
2013-10-08 22:40:00,77.6,76.4,29.85,NW,306,0.0,0.0,96,0.00,,---,0.03,VWS V14.01,2013-10-09 02:40:00,
2013-10-08 22:45:00,77.6,76.4,29.85,NW,306,0.0,0.0,96,0.00,,---,0.03,VWS V14.01,2013-10-09 02:45:00,
2013-10-08 22:50:00,77.6,76.4,29.85,NW,306,0.0,0.0,96,0.00,,---,0.03,VWS V14.01,2013-10-09 02:50:00,
2013-10-08 22:55:00,77.6,76.4,29.85,NW,306,0.0,0.0,96,0.00,,---,0.03,VWS V14.01,2013-10-09 02:55:00,
2013-10-08 23:00:00,77.6,76.4,29.85,NW,306,0.0,0.0,96,0.00,,---,0.03,VWS V14.01,2013-10-09 03:00:00,
2013-10-08 23:05:00,75.1,73.9,29.85,ENE,72,0.0,0.0,96,0.00,,---,0.03,VWS V14.01,2013-10-09 03:05:00,
2013-10-08 23:10:00,74.9,73.7,29.85,ENE,76,0.0,0.0,96,0.00,,---,0.03,VWS V14.01,2013-10-09 03:10:00,
2013-10-08 23:15:00,74.9,73.7,29.85,East,86,0.0,0.0,96,0.00,,---,0.03,VWS V14.01,2013-10-09 03:15:00,
2013-10-08 23:20:00,74.7,73.5,29.85,ENE,71,0.0,0.0,96,0.00,,---,0.03,VWS V14.01,2013-10-09 03:20:00,
2013-10-08 23:25:00,74.6,73.4,29.85,ENE,71,0.0,0.0,96,0.00,,---,0.03,VWS V14.01,2013-10-09 03:25:00,
2013-10-08 23:30:00,74.6,73.4,29.85,ENE,73,0.0,0.0,96,0.00,,---,0.03,VWS V14.01,2013-10-09 03:30:00,
2013-10-08 23:35:00,74.4,73.2,29.85,ENE,75,0.0,0.0,96,0.00,,---,0.03,VWS V14.01,2013-10-09 03:35:00,
2013-10-08 23:40:00,74.4,73.2,29.85,ENE,69,0.0,0.0,96,0.00,,---,0.03,VWS V14.01,2013-10-09 03:40:00,
2013-10-08 23:45:00,74.2,73.0,29.85,ENE,72,0.0,0.0,96,0.00,,---,0.03,VWS V14.01,2013-10-09 03:45:00,
2013-10-08 23:50:00,74.2,73.0,29.85,ENE,75,0.0,0.0,96,0.00,,---,0.03,VWS V14.01,2013-10-09 03:50:00,
2013-10-08 23:55:00,74.0,72.8,29.85,ENE,76,0.0,0.0,96,0.00,,---,0.03,VWS V14.01,2013-10-09 03:55:00,